Overview Statistics Trail Chart Weather Telemetry Raw packets
 

This is the latest recevied weather packets stored in our database for station/object OK1FET-5. If no packets are shown the sender has not sent any weather packets the latest 10 day(s).

<< 4 5 6 7 8 9 10 >>
Time Temp. Humidity Pressure Rain* Wind** Luminosity Snow
1788519356 26.11° C 51% 1016.1 hPa - - - -
1788518760 25.56° C 53% 1016.2 hPa - - - -
1788518164 26.11° C 52% 1016.4 hPa - - - -
1788517569 25.56° C 54% 1016.5 hPa - - - -
1788516973 24.44° C 56% 1016.5 hPa - - - -
1788515781 24.44° C 55% 1016.9 hPa - - - -
1788515186 25° C 55% 1017.1 hPa - - - -
1788514590 24.44° C 56% 1017 hPa - - - -
1788513398 23.89° C 58% 1017.4 hPa - - - -
1788512802 24.44° C 57% 1017.4 hPa - - - -
1788512207 24.44° C 57% 1017.5 hPa - - - -
1788511611 25° C 55% 1017.5 hPa - - - -
1788511015 25° C 55% 1017.6 hPa - - - -
1788510419 24.44° C 57% 1017.8 hPa - - - -
1788509824 24.44° C 56% 1018 hPa - - - -
1788509228 25.56° C 54% 1018.1 hPa - - - -
1788508632 26.11° C 53% 1018.3 hPa - - - -
1788508036 24.44° C 57% 1018.3 hPa - - - -
1788507440 23.33° C 60% 1018.3 hPa - - - -
1788506845 22.22° C 62% 1018.3 hPa - - - -
1788506249 22.22° C 63% 1018.4 hPa - - - -
1788505653 21.67° C 64% 1018.3 hPa - - - -
1788505057 21.11° C 66% 1018.4 hPa - - - -
1788504462 20° C 68% 1018.5 hPa - - - -
1788503866 19.44° C 70% 1018.7 hPa - - - -

* Rain since midnight (hover to see other rain measurements)
** Current wind speed in m/s (hover to see current wind gust speed)